Time;durP1;ratioP1;P1;durP2;ratioP2;P2;SDS_P1;SDS_P2;PMS_P1;PMS_P2;Temp;Humidity;BMP_temperature;BMP_pressure;BME280_temperature;BME280_humidity;BME280_pressure;Samples;Min_cycle;Max_cycle;Signal;HPM_P1;HPM_P2
2023/04/14 00:01:40;;;;;;;1.43;1.27;;;10.70;36.70;;;;;;10323491;28;20237;-71
2023/04/14 00:06:44;;;;;;;1.40;1.30;;;10.70;36.80;;;;;;10314485;28;20234;-71
2023/04/14 00:11:49;;;;;;;1.47;1.20;;;10.70;37.30;;;;;;10336424;28;20226;-71
2023/04/14 00:16:52;;;;;;;2.57;1.40;;;10.60;36.80;;;;;;10315644;28;20227;-71
2023/04/14 00:21:57;;;;;;;1.60;1.20;;;10.60;37.00;;;;;;10331233;28;20293;-71
2023/04/14 00:27:00;;;;;;;1.67;1.33;;;10.60;37.60;;;;;;10322692;28;20251;-71
2023/04/14 00:32:03;;;;;;;1.70;1.50;;;10.50;37.10;;;;;;10297651;28;20703;-71
2023/04/14 00:37:08;;;;;;;1.63;1.30;;;10.50;37.30;;;;;;10258893;28;20235;-71
2023/04/14 00:42:11;;;;;;;1.70;1.60;;;10.50;37.70;;;;;;10295715;28;20608;-72
2023/04/14 00:47:15;;;;;;;1.53;1.43;;;10.50;37.30;;;;;;10290241;28;20746;-71
2023/04/14 00:52:22;;;;;;;2.27;1.30;;;10.40;37.40;;;;;;10281272;28;20245;-71
2023/04/14 00:57:26;;;;;;;2.93;1.57;;;10.40;38.40;;;;;;10306187;28;20302;-71
2023/04/14 01:02:29;;;;;;;1.60;1.50;;;10.40;37.70;;;;;;10293379;28;20231;-72
2023/04/14 01:07:35;;;;;;;2.10;1.80;;;10.30;37.60;;;;;;10302639;28;20285;-71
2023/04/14 01:13:04;;;;;;;2.57;1.43;;;10.40;38.20;;;;;;10276201;28;20238;-71
2023/04/14 01:18:15;;;;;;;2.40;1.53;;;10.40;39.20;;;;;;10283816;28;20238;-71
2023/04/14 01:23:25;;;;;;;2.10;1.80;;;10.40;38.30;;;;;;10298979;28;20231;-71
2023/04/14 01:28:42;;;;;;;1.83;1.67;;;10.50;38.70;;;;;;10308505;28;20239;-71
2023/04/14 01:33:52;;;;;;;2.17;1.97;;;10.50;39.10;;;;;;10342123;28;20737;-71
2023/04/14 01:38:57;;;;;;;2.20;2.00;;;10.50;38.50;;;;;;10324545;28;20230;-71
2023/04/14 01:44:03;;;;;;;1.90;1.80;;;10.50;38.20;;;;;;10295479;28;20227;-71
2023/04/14 01:49:08;;;;;;;3.53;2.40;;;10.40;38.10;;;;;;10327447;28;20226;-71
2023/04/14 01:54:14;;;;;;;2.70;2.30;;;10.40;38.30;;;;;;10336989;28;20227;-71
2023/04/14 01:59:19;;;;;;;2.40;2.20;;;10.40;38.40;;;;;;10332189;28;20235;-71
2023/04/14 02:04:27;;;;;;;2.60;2.40;;;10.40;38.30;;;;;;10338224;28;20242;-71
2023/04/14 02:09:32;;;;;;;3.20;2.53;;;10.40;39.00;;;;;;10322601;28;20306;-72
2023/04/14 02:14:37;;;;;;;2.70;2.50;;;10.40;38.70;;;;;;10305782;28;20231;-71
2023/04/14 02:19:43;;;;;;;2.77;2.57;;;10.40;38.10;;;;;;10339026;28;20235;-71
2023/04/14 02:24:47;;;;;;;3.00;2.70;;;10.40;38.90;;;;;;10328542;28;20741;-71
2023/04/14 02:29:54;;;;;;;3.37;2.93;;;10.40;38.20;;;;;;10329774;28;20578;-71
2023/04/14 02:35:03;;;;;;;2.70;2.50;;;10.40;38.80;;;;;;10318625;28;20731;-71
2023/04/14 02:40:14;;;;;;;3.23;2.83;;;10.40;39.20;;;;;;10319371;28;20758;-71
2023/04/14 02:45:22;;;;;;;2.90;2.70;;;10.40;39.40;;;;;;10347229;28;20710;-71
2023/04/14 02:50:28;;;;;;;3.23;3.03;;;10.30;38.60;;;;;;10329411;28;20222;-70
2023/04/14 02:55:32;;;;;;;3.60;3.20;;;10.30;38.80;;;;;;10328973;28;20238;-71
2023/04/14 03:00:38;;;;;;;3.53;3.23;;;10.30;38.30;;;;;;10337893;28;20726;-71
2023/04/14 03:05:45;;;;;;;3.57;3.27;;;10.20;38.60;;;;;;10320171;28;20302;-71
2023/04/14 03:10:49;;;;;;;3.50;3.20;;;10.20;39.10;;;;;;10341264;28;20600;-72
2023/04/14 03:15:54;;;;;;;3.87;3.03;;;10.10;38.50;;;;;;10341797;28;20226;-71
2023/04/14 03:20:59;;;;;;;3.13;2.93;;;10.10;38.80;;;;;;10332820;28;20237;-71
2023/04/14 03:26:03;;;;;;;3.70;3.40;;;10.00;39.10;;;;;;10308596;28;20222;-71
2023/04/14 03:31:09;;;;;;;3.50;3.23;;;9.90;39.80;;;;;;10332110;28;20659;-71
2023/04/14 03:36:16;;;;;;;3.43;3.10;;;9.80;40.30;;;;;;10348671;28;20322;-71
2023/04/14 03:41:22;;;;;;;3.70;3.40;;;9.80;40.70;;;;;;10351937;28;20262;-74
2023/04/14 03:46:27;;;;;;;3.57;3.23;;;9.70;40.40;;;;;;10291637;28;20231;-72
2023/04/14 03:51:33;;;;;;;3.70;3.40;;;9.60;40.50;;;;;;10291802;28;20249;-72
2023/04/14 03:56:40;;;;;;;3.63;3.33;;;9.50;40.50;;;;;;10291694;28;20635;-72
2023/04/14 04:01:44;;;;;;;4.03;3.63;;;9.40;40.40;;;;;;10291545;28;20258;-72
2023/04/14 04:06:49;;;;;;;3.40;3.10;;;9.30;40.50;;;;;;10291607;28;20235;-71
2023/04/14 04:11:56;;;;;;;3.67;2.90;;;9.30;40.80;;;;;;10292444;28;20236;-72
2023/04/14 04:17:04;;;;;;;3.73;3.43;;;9.30;40.60;;;;;;10291314;28;20723;-72
2023/04/14 04:22:10;;;;;;;3.70;3.13;;;9.30;41.20;;;;;;10290822;28;20227;-72
2023/04/14 04:27:15;;;;;;;3.33;3.10;;;9.40;41.20;;;;;;10269845;28;20542;-72
2023/04/14 04:32:30;;;;;;;3.10;2.90;;;9.40;40.90;;;;;;10250716;28;20238;-71
2023/04/14 04:37:36;;;;;;;3.43;2.90;;;9.40;40.80;;;;;;10250952;28;20236;-72
2023/04/14 04:42:42;;;;;;;4.77;2.87;;;9.50;41.10;;;;;;10249101;28;20232;-71
2023/04/14 04:47:46;;;;;;;3.03;2.80;;;9.50;41.60;;;;;;10249830;28;20755;-71
2023/04/14 04:52:50;;;;;;;2.90;2.60;;;9.60;40.50;;;;;;10249827;28;20224;-72
2023/04/14 04:57:53;;;;;;;3.17;2.87;;;9.60;41.50;;;;;;10249873;28;20651;-71
2023/04/14 05:02:56;;;;;;;3.40;3.10;;;9.60;40.50;;;;;;10249547;28;20232;-72
2023/04/14 05:08:02;;;;;;;3.03;2.83;;;9.60;40.50;;;;;;10249304;28;20348;-72
2023/04/14 05:13:05;;;;;;;3.00;2.70;;;9.60;41.70;;;;;;10252004;28;20251;-72
2023/04/14 05:18:08;;;;;;;2.77;2.57;;;9.70;40.60;;;;;;10252116;28;20228;-70
2023/04/14 05:23:12;;;;;;;2.80;2.60;;;9.70;40.80;;;;;;10251533;28;20587;-71
2023/04/14 05:28:16;;;;;;;3.13;2.83;;;9.70;41.20;;;;;;10279775;28;20232;-71
2023/04/14 05:33:19;;;;;;;2.90;2.70;;;9.80;40.80;;;;;;10290624;28;20239;-70
2023/04/14 05:38:24;;;;;;;2.60;2.40;;;9.80;40.70;;;;;;10290909;28;20302;-71
2023/04/14 05:43:27;;;;;;;2.73;2.50;;;9.90;41.20;;;;;;10290869;28;20307;-71
2023/04/14 05:48:32;;;;;;;3.53;2.50;;;9.90;40.80;;;;;;10290439;28;20231;-71
2023/04/14 05:53:37;;;;;;;2.80;2.60;;;10.00;39.90;;;;;;10290186;28;20231;-71
2023/04/14 05:58:40;;;;;;;3.83;2.10;;;10.00;40.10;;;;;;10289590;28;20609;-72
2023/04/14 06:03:43;;;;;;;2.47;2.00;;;10.00;39.90;;;;;;10289683;28;20236;-71
2023/04/14 06:08:48;;;;;;;2.53;2.00;;;10.00;39.90;;;;;;10287955;28;20332;-73
2023/04/14 06:13:51;;;;;;;2.20;1.90;;;10.00;39.90;;;;;;10282726;28;20223;-73
2023/04/14 06:18:54;;;;;;;2.20;2.00;;;10.00;39.90;;;;;;10308011;28;20235;-72
2023/04/14 06:23:58;;;;;;;2.00;1.80;;;9.90;40.80;;;;;;10279708;28;20247;-73
2023/04/14 06:29:02;;;;;;;2.43;2.00;;;9.90;40.90;;;;;;10281419;28;20242;-72
2023/04/14 06:34:05;;;;;;;2.20;2.00;;;9.80;40.70;;;;;;10280598;28;20227;-72
2023/04/14 06:39:11;;;;;;;2.70;2.10;;;9.80;40.70;;;;;;10281393;28;20239;-71
2023/04/14 06:44:17;;;;;;;2.47;1.90;;;9.70;41.40;;;;;;10279328;28;21004;-72
2023/04/14 06:49:22;;;;;;;2.50;2.30;;;9.70;41.50;;;;;;10280015;28;20232;-72
2023/04/14 06:54:30;;;;;;;4.07;2.47;;;9.70;41.60;;;;;;10280081;28;20728;-71
2023/04/14 06:59:34;;;;;;;2.83;2.30;;;9.70;41.90;;;;;;10278376;28;20269;-71
2023/04/14 07:04:37;;;;;;;2.53;2.33;;;9.70;41.60;;;;;;10283443;28;20235;-71
2023/04/14 07:09:43;;;;;;;2.87;2.50;;;9.60;41.50;;;;;;10284878;28;20231;-71
2023/04/14 07:14:50;;;;;;;3.00;2.80;;;9.60;42.30;;;;;;10291068;28;20327;-71
2023/04/14 07:19:54;;;;;;;2.63;2.43;;;9.70;41.90;;;;;;10292427;28;20227;-71
2023/04/14 07:24:58;;;;;;;2.80;2.60;;;9.70;41.90;;;;;;10296538;28;20235;-72
2023/04/14 07:30:02;;;;;;;2.83;2.63;;;9.70;42.20;;;;;;10290655;28;20699;-71
2023/04/14 07:35:07;;;;;;;2.50;2.30;;;9.80;41.90;;;;;;10290522;28;20231;-70
2023/04/14 07:40:12;;;;;;;2.60;2.40;;;9.70;42.10;;;;;;10291198;28;20231;-71
2023/04/14 07:45:16;;;;;;;4.67;2.77;;;9.80;42.40;;;;;;10290399;28;20255;-71
2023/04/14 07:50:19;;;;;;;2.60;2.23;;;9.80;42.20;;;;;;10290576;28;20236;-70
2023/04/14 07:55:24;;;;;;;3.60;2.57;;;9.80;42.20;;;;;;10308807;28;20238;-70
2023/04/14 08:00:29;;;;;;;3.00;2.70;;;9.80;42.50;;;;;;10330241;28;20285;-72
2023/04/14 08:05:33;;;;;;;2.33;2.13;;;9.90;42.10;;;;;;10329016;28;20253;-71
2023/04/14 08:10:38;;;;;;;2.77;2.47;;;9.90;42.30;;;;;;10337476;28;20230;-71
2023/04/14 08:15:41;;;;;;;2.33;2.20;;;10.00;42.10;;;;;;10333966;28;20249;-70
2023/04/14 08:20:45;;;;;;;2.53;2.10;;;10.00;41.50;;;;;;10330981;28;20223;-71
2023/04/14 08:25:49;;;;;;;2.40;2.20;;;10.00;41.30;;;;;;10330140;28;20235;-71
2023/04/14 08:30:53;;;;;;;2.60;2.40;;;10.00;41.80;;;;;;10345646;28;20222;-71
2023/04/14 08:35:56;;;;;;;3.23;2.33;;;10.00;41.80;;;;;;10335082;28;20242;-70
2023/04/14 08:41:07;;;;;;;3.03;2.30;;;10.00;41.70;;;;;;10329744;28;20665;-73
2023/04/14 08:46:11;;;;;;;2.90;2.37;;;10.10;42.40;;;;;;10330312;28;20235;-72
2023/04/14 08:51:22;;;;;;;2.77;2.57;;;10.20;41.80;;;;;;10330109;28;20750;-71
2023/04/14 08:56:33;;;;;;;4.40;3.90;;;10.20;42.40;;;;;;10329535;28;20231;-71
2023/04/14 09:01:38;;;;;;;4.00;3.67;;;10.20;42.70;;;;;;10329944;28;20699;-72
2023/04/14 09:06:41;;;;;;;4.00;2.73;;;10.30;42.10;;;;;;10329459;28;20231;-71
2023/04/14 09:11:47;;;;;;;2.83;2.63;;;10.40;42.20;;;;;;10329335;28;20219;-69
2023/04/14 09:16:52;;;;;;;2.70;2.50;;;10.40;42.20;;;;;;10327173;28;20238;-69
2023/04/14 09:21:56;;;;;;;3.33;2.33;;;10.50;42.20;;;;;;10326694;28;20752;-69
2023/04/14 09:27:03;;;;;;;1.80;1.70;;;10.50;42.20;;;;;;10326930;28;20230;-70
2023/04/14 09:32:07;;;;;;;3.47;2.00;;;10.60;42.80;;;;;;10409694;28;20305;-69
2023/04/14 09:37:11;;;;;;;2.47;2.27;;;10.70;42.20;;;;;;10407873;28;20221;-68
2023/04/14 09:42:16;;;;;;;2.70;2.30;;;10.80;42.00;;;;;;10408623;28;20645;-69
2023/04/14 09:47:21;;;;;;;2.27;2.07;;;10.90;42.20;;;;;;10407291;28;20244;-68
2023/04/14 09:52:38;;;;;;;2.00;1.90;;;10.90;42.40;;;;;;10409155;28;20259;-71
2023/04/14 09:57:43;;;;;;;2.57;2.03;;;11.00;42.80;;;;;;10409776;28;20229;-73
2023/04/14 10:02:50;;;;;;;3.43;1.80;;;11.00;42.50;;;;;;10409475;28;20233;-69
2023/04/14 10:07:54;;;;;;;2.27;2.00;;;11.10;43.00;;;;;;10407408;28;20726;-69
2023/04/14 10:13:01;;;;;;;2.00;1.90;;;11.30;42.30;;;;;;10407783;28;20226;-70
2023/04/14 10:18:04;;;;;;;2.23;2.03;;;11.40;43.20;;;;;;10406573;28;20230;-70
2023/04/14 10:23:08;;;;;;;1.83;1.70;;;11.60;42.60;;;;;;10407465;28;20230;-70
2023/04/14 10:28:12;;;;;;;1.83;1.73;;;11.70;41.90;;;;;;10403711;28;20229;-70
2023/04/14 10:33:16;;;;;;;2.03;1.83;;;11.80;41.60;;;;;;10406552;28;20244;-70
2023/04/14 10:38:19;;;;;;;3.20;1.90;;;11.90;41.60;;;;;;10405432;28;20616;-70
2023/04/14 10:43:27;;;;;;;2.47;1.67;;;12.00;41.70;;;;;;10406723;28;20230;-70
2023/04/14 10:48:34;;;;;;;1.80;1.70;;;12.00;41.70;;;;;;10406293;28;20709;-70
2023/04/14 10:53:43;;;;;;;2.27;2.07;;;12.00;41.70;;;;;;10404880;28;20229;-70
2023/04/14 10:58:56;;;;;;;3.43;3.13;;;12.10;41.60;;;;;;10404424;28;20249;-70
2023/04/14 11:04:17;;;;;;;2.30;1.90;;;12.10;41.80;;;;;;10405801;28;20739;-70
2023/04/14 11:09:32;;;;;;;2.60;2.20;;;12.20;41.90;;;;;;10405937;28;20229;-70
2023/04/14 11:14:37;;;;;;;3.23;2.00;;;12.20;41.90;;;;;;10406396;28;20225;-70
2023/04/14 11:19:40;;;;;;;2.03;1.67;;;12.30;41.90;;;;;;10406512;28;20236;-70
2023/04/14 11:24:43;;;;;;;2.67;1.87;;;12.40;41.80;;;;;;10406106;28;20236;-71
2023/04/14 11:29:50;;;;;;;1.77;1.60;;;12.50;41.50;;;;;;10405937;28;20225;-72
2023/04/14 11:34:53;;;;;;;3.43;1.83;;;12.50;41.80;;;;;;10406349;28;20233;-72
2023/04/14 11:39:57;;;;;;;2.00;1.60;;;12.60;41.90;;;;;;10406521;28;20720;-71
2023/04/14 11:45:02;;;;;;;2.80;1.80;;;12.60;41.00;;;;;;10405841;28;20280;-71
2023/04/14 11:50:07;;;;;;;1.50;1.37;;;12.70;41.20;;;;;;10411030;28;20221;-70
2023/04/14 11:55:10;;;;;;;1.57;1.47;;;12.70;41.10;;;;;;10414971;28;20226;-70
2023/04/14 12:00:16;;;;;;;1.70;1.60;;;12.70;41.20;;;;;;10377837;28;20237;-71
2023/04/14 12:05:21;;;;;;;1.60;1.50;;;12.80;40.80;;;;;;10374617;28;20242;-71
2023/04/14 12:10:24;;;;;;;1.47;1.33;;;12.80;40.90;;;;;;10375497;28;20637;-71
2023/04/14 12:15:30;;;;;;;1.47;1.37;;;12.90;41.20;;;;;;10373389;28;20237;-70
2023/04/14 12:20:42;;;;;;;1.70;1.60;;;12.90;40.90;;;;;;10402335;28;20225;-72
2023/04/14 12:25:45;;;;;;;1.70;1.60;;;13.00;40.30;;;;;;10413160;28;20757;-71
2023/04/14 12:30:53;;;;;;;2.07;1.60;;;13.00;40.60;;;;;;10412406;28;20244;-70
2023/04/14 12:36:01;;;;;;;1.63;1.50;;;13.00;40.20;;;;;;10411632;28;20280;-70
2023/04/14 12:41:05;;;;;;;1.50;1.30;;;13.10;39.80;;;;;;10409712;28;20238;-69
2023/04/14 12:46:09;;;;;;;2.53;1.40;;;13.10;40.20;;;;;;10409792;28;20255;-70
2023/04/14 12:51:13;;;;;;;1.53;1.40;;;13.10;40.20;;;;;;10410564;28;20225;-71
2023/04/14 12:56:18;;;;;;;2.20;2.00;;;13.10;39.70;;;;;;10411090;28;20239;-71
2023/04/14 13:01:23;;;;;;;2.20;2.10;;;13.00;39.00;;;;;;10410780;28;20341;-70
2023/04/14 13:06:26;;;;;;;3.40;2.60;;;12.90;39.80;;;;;;10409130;28;20332;-72
2023/04/14 13:11:30;;;;;;;2.07;1.87;;;12.80;39.80;;;;;;10411107;28;20237;-70
2023/04/14 13:16:34;;;;;;;2.80;1.80;;;12.80;40.10;;;;;;10410752;28;20236;-70
2023/04/14 13:21:39;;;;;;;2.03;1.60;;;12.90;39.80;;;;;;10410694;28;20248;-72
2023/04/14 13:26:43;;;;;;;2.60;1.87;;;13.00;40.20;;;;;;10410508;28;20226;-70
2023/04/14 13:31:47;;;;;;;2.00;1.90;;;13.00;39.70;;;;;;10409505;28;20696;-70
2023/04/14 13:36:51;;;;;;;2.40;2.00;;;13.10;40.00;;;;;;10409047;28;20289;-70
2023/04/14 13:41:54;;;;;;;2.43;2.20;;;13.20;40.00;;;;;;10407988;28;20446;-70
2023/04/14 13:46:59;;;;;;;2.17;2.03;;;13.30;39.80;;;;;;10408413;28;20894;-70
2023/04/14 13:52:02;;;;;;;2.40;2.20;;;13.50;39.60;;;;;;10407949;28;20229;-71
2023/04/14 13:57:05;;;;;;;2.83;2.27;;;13.60;39.80;;;;;;10408644;28;20240;-71
2023/04/14 14:02:10;;;;;;;2.17;2.00;;;13.60;39.40;;;;;;10408717;28;20236;-70
2023/04/14 14:07:13;;;;;;;2.03;1.93;;;13.80;39.30;;;;;;10407594;28;20222;-70
2023/04/14 14:12:17;;;;;;;2.33;2.13;;;13.90;39.30;;;;;;10406790;28;20229;-72
2023/04/14 14:17:21;;;;;;;1.93;1.83;;;13.90;39.00;;;;;;10407783;28;20268;-69
2023/04/14 14:22:25;;;;;;;2.00;1.90;;;14.00;39.10;;;;;;10406191;28;20229;-72
2023/04/14 14:27:28;;;;;;;1.80;1.70;;;14.10;39.10;;;;;;10404383;28;20612;-71
2023/04/14 14:32:34;;;;;;;2.13;1.67;;;14.20;39.10;;;;;;10405609;28;20222;-70
2023/04/14 14:37:37;;;;;;;2.40;1.70;;;14.20;37.30;;;;;;10406892;28;20237;-69
2023/04/14 14:42:40;;;;;;;1.83;1.57;;;14.20;37.60;;;;;;10406372;28;20596;-70
2023/04/14 14:47:45;;;;;;;1.80;1.70;;;14.20;37.70;;;;;;10403634;28;20229;-69
2023/04/14 14:52:48;;;;;;;2.00;1.90;;;14.30;36.70;;;;;;10403874;28;20702;-68
2023/04/14 14:57:51;;;;;;;1.70;1.60;;;14.30;37.70;;;;;;10404591;28;20253;-72
2023/04/14 15:02:56;;;;;;;1.87;1.70;;;14.40;37.60;;;;;;10405436;28;20225;-70
2023/04/14 15:08:00;;;;;;;1.83;1.60;;;14.40;36.70;;;;;;10405174;28;20717;-70
2023/04/14 15:13:03;;;;;;;1.87;1.40;;;14.40;36.70;;;;;;10406388;28;20232;-70
2023/04/14 15:18:10;;;;;;;2.03;1.70;;;14.40;37.40;;;;;;10407752;28;20237;-68
2023/04/14 15:23:13;;;;;;;1.87;1.73;;;14.40;36.50;;;;;;10406676;28;20233;-69
2023/04/14 15:28:16;;;;;;;5.90;5.30;;;14.40;37.00;;;;;;10414704;28;20238;-70
2023/04/14 15:33:21;;;;;;;2.37;2.17;;;14.50;37.10;;;;;;10414510;28;20233;-70
2023/04/14 15:38:24;;;;;;;3.47;1.73;;;14.50;36.90;;;;;;10413067;28;20742;-70
2023/04/14 15:43:27;;;;;;;2.40;2.30;;;14.60;36.80;;;;;;10413765;28;20222;-70
2023/04/14 15:48:32;;;;;;;2.30;2.10;;;14.70;37.00;;;;;;10412956;28;20233;-70
2023/04/14 15:53:35;;;;;;;1.97;1.40;;;14.80;36.10;;;;;;10412801;28;20229;-70
2023/04/14 15:58:38;;;;;;;2.70;2.50;;;14.80;36.30;;;;;;10412469;28;20222;-70
2023/04/14 16:03:43;;;;;;;1.60;1.50;;;14.80;36.10;;;;;;10411970;28;20831;-70
2023/04/14 16:08:46;;;;;;;2.50;1.60;;;14.80;36.20;;;;;;10412357;28;20248;-70
2023/04/14 16:13:51;;;;;;;2.00;1.90;;;14.80;36.60;;;;;;10412093;28;20888;-70
2023/04/14 16:18:55;;;;;;;1.63;1.53;;;14.90;36.30;;;;;;10412956;28;20229;-71
2023/04/14 16:23:58;;;;;;;1.47;1.37;;;14.90;35.90;;;;;;10411558;28;20280;-70
2023/04/14 16:29:02;;;;;;;1.87;1.40;;;14.70;36.00;;;;;;10414281;28;20238;-69
2023/04/14 16:34:07;;;;;;;1.53;1.43;;;14.70;36.10;;;;;;10414125;28;20229;-70
2023/04/14 16:39:10;;;;;;;1.27;1.20;;;14.60;35.60;;;;;;10412728;28;20229;-70
2023/04/14 16:44:13;;;;;;;1.47;1.30;;;14.40;35.90;;;;;;10414347;28;20236;-70
2023/04/14 16:49:18;;;;;;;1.47;1.20;;;14.40;36.10;;;;;;10413806;28;20600;-70
2023/04/14 16:54:21;;;;;;;1.40;1.30;;;14.30;35.90;;;;;;10413072;28;20225;-70
2023/04/14 16:59:24;;;;;;;1.37;1.27;;;14.20;36.20;;;;;;10412565;28;20238;-70
2023/04/14 17:04:30;;;;;;;1.00;1.00;;;14.10;36.30;;;;;;10412455;28;20225;-70
2023/04/14 17:09:33;;;;;;;1.40;1.10;;;14.10;36.30;;;;;;10412935;28;20313;-70
2023/04/14 17:14:37;;;;;;;1.57;1.40;;;14.10;36.50;;;;;;10412433;28;20225;-71
2023/04/14 17:19:42;;;;;;;1.50;1.40;;;14.00;36.50;;;;;;10412661;28;20328;-70
2023/04/14 17:24:45;;;;;;;2.00;1.60;;;14.00;36.30;;;;;;10411090;28;20248;-71
2023/04/14 17:29:48;;;;;;;1.77;1.67;;;14.00;36.50;;;;;;10411840;28;20217;-71
2023/04/14 17:34:53;;;;;;;1.50;1.40;;;14.00;36.60;;;;;;10411937;28;20229;-71
2023/04/14 17:39:57;;;;;;;2.13;1.50;;;13.90;36.50;;;;;;10410873;28;20233;-71
2023/04/14 17:45:01;;;;;;;1.57;1.47;;;13.90;36.80;;;;;;10411107;28;20248;-71
2023/04/14 17:50:06;;;;;;;3.60;1.80;;;13.90;36.80;;;;;;10410731;28;20222;-70
2023/04/14 17:55:10;;;;;;;1.60;1.40;;;13.90;36.80;;;;;;10411433;28;20225;-71
2023/04/14 18:00:15;;;;;;;2.90;1.80;;;13.80;36.90;;;;;;10411228;28;20710;-71
2023/04/14 18:05:21;;;;;;;2.17;2.07;;;13.80;37.80;;;;;;10410747;28;20714;-71
2023/04/14 18:10:25;;;;;;;2.07;1.97;;;13.80;37.00;;;;;;10410684;28;20228;-71
2023/04/14 18:15:28;;;;;;;4.30;2.93;;;13.80;37.00;;;;;;10410397;28;20313;-71
2023/04/14 18:20:32;;;;;;;4.40;4.00;;;13.80;37.00;;;;;;10410528;28;20229;-71
2023/04/14 18:25:36;;;;;;;2.77;2.57;;;13.70;37.10;;;;;;10410335;28;20240;-71
2023/04/14 18:30:42;;;;;;;3.50;3.17;;;13.70;37.00;;;;;;10410447;28;20225;-71
2023/04/14 18:35:51;;;;;;;1.67;1.50;;;13.70;36.80;;;;;;10410287;28;20237;-71
2023/04/14 18:40:54;;;;;;;3.23;2.47;;;13.60;36.50;;;;;;10402328;28;20287;-71
2023/04/14 18:45:57;;;;;;;2.43;2.20;;;13.50;36.60;;;;;;10400081;28;20229;-71
2023/04/14 18:51:06;;;;;;;2.10;1.90;;;13.40;36.70;;;;;;10400823;28;20308;-71
2023/04/14 18:56:09;;;;;;;1.90;1.80;;;13.30;36.80;;;;;;10401044;28;20877;-72
2023/04/14 19:01:13;;;;;;;2.00;1.70;;;13.20;36.90;;;;;;10398712;28;20232;-71
2023/04/14 19:06:17;;;;;;;2.00;1.90;;;13.20;37.00;;;;;;10398999;28;20775;-71
2023/04/14 19:11:20;;;;;;;1.90;1.80;;;13.10;37.10;;;;;;10400343;28;20226;-71
2023/04/14 19:16:24;;;;;;;2.70;2.13;;;13.10;37.10;;;;;;10398912;28;20237;-71
2023/04/14 19:21:28;;;;;;;3.20;2.20;;;13.00;37.10;;;;;;10398912;28;20229;-71
2023/04/14 19:26:33;;;;;;;2.40;2.20;;;13.00;37.40;;;;;;10398908;28;20237;-71
2023/04/14 19:31:36;;;;;;;2.10;1.57;;;13.00;37.60;;;;;;10399398;28;20245;-71
2023/04/14 19:36:42;;;;;;;2.20;2.00;;;13.10;37.70;;;;;;10398980;28;20229;-71
2023/04/14 19:41:45;;;;;;;4.13;3.70;;;13.10;37.90;;;;;;10398166;28;20252;-72
2023/04/14 19:46:48;;;;;;;3.27;3.00;;;13.00;37.50;;;;;;10399153;28;20271;-72
2023/04/14 19:51:53;;;;;;;3.50;3.20;;;13.00;37.60;;;;;;10397952;28;20780;-72
2023/04/14 19:56:56;;;;;;;3.23;2.97;;;13.00;38.10;;;;;;10397832;28;20714;-71
2023/04/14 20:02:00;;;;;;;2.40;2.20;;;12.90;37.90;;;;;;10398892;28;20226;-71
2023/04/14 20:07:05;;;;;;;2.30;2.10;;;12.90;37.90;;;;;;10399337;28;20265;-71
2023/04/14 20:12:08;;;;;;;2.00;1.90;;;12.90;37.80;;;;;;10408410;28;20821;-72
2023/04/14 20:17:12;;;;;;;1.90;1.80;;;12.90;37.60;;;;;;10410224;28;20240;-72
2023/04/14 20:22:17;;;;;;;1.60;1.50;;;12.90;37.50;;;;;;10410058;28;20260;-71
2023/04/14 20:27:20;;;;;;;2.60;2.40;;;12.80;37.50;;;;;;10409636;28;20450;-71
2023/04/14 20:32:24;;;;;;;2.37;2.17;;;12.70;37.30;;;;;;10410054;28;20233;-71
2023/04/14 20:37:29;;;;;;;3.33;2.60;;;12.60;37.20;;;;;;10409105;28;20229;-72
2023/04/14 20:42:32;;;;;;;3.03;2.73;;;12.60;37.40;;;;;;10409045;28;20256;-72
2023/04/14 20:47:36;;;;;;;2.50;2.30;;;12.50;37.30;;;;;;10409027;28;20237;-72
2023/04/14 20:52:40;;;;;;;2.50;2.30;;;12.40;37.40;;;;;;10408896;28;20247;-72
2023/04/14 20:57:44;;;;;;;4.73;4.23;;;12.40;37.80;;;;;;10408924;28;20237;-72
2023/04/14 21:02:50;;;;;;;4.10;3.70;;;12.30;37.80;;;;;;10408591;28;20239;-72
2023/04/14 21:07:55;;;;;;;3.27;2.97;;;12.30;37.80;;;;;;10408928;28;20240;-72
2023/04/14 21:12:58;;;;;;;2.90;2.70;;;12.30;38.00;;;;;;10408481;28;20632;-72
2023/04/14 21:18:21;;;;;;;2.87;2.60;;;12.30;37.90;;;;;;10407788;28;20265;-72
2023/04/14 21:23:26;;;;;;;3.30;3.00;;;12.30;38.00;;;;;;10407224;28;20869;-72
2023/04/14 21:28:31;;;;;;;3.17;2.97;;;12.30;38.10;;;;;;10405288;28;20237;-71
2023/04/14 21:33:34;;;;;;;3.80;3.50;;;12.40;38.20;;;;;;10400264;28;20232;-71
2023/04/14 21:38:39;;;;;;;3.17;2.90;;;12.30;38.20;;;;;;10399392;28;20768;-71
2023/04/14 21:43:42;;;;;;;2.83;2.60;;;12.30;38.40;;;;;;10401291;28;20728;-71
2023/04/14 21:48:45;;;;;;;2.43;2.23;;;12.30;38.30;;;;;;10397708;28;20236;-71
2023/04/14 21:53:50;;;;;;;2.70;2.50;;;12.30;38.40;;;;;;10400459;28;20229;-71
2023/04/14 21:58:53;;;;;;;4.70;2.93;;;12.30;38.60;;;;;;10399307;28;20721;-70
2023/04/14 22:03:56;;;;;;;2.90;2.70;;;12.30;38.30;;;;;;10399274;28;20234;-71
2023/04/14 22:09:01;;;;;;;3.60;2.50;;;12.30;38.20;;;;;;10398626;28;20333;-71
2023/04/14 22:14:05;;;;;;;3.33;3.03;;;12.30;38.10;;;;;;10398357;28;20220;-71
2023/04/14 22:19:09;;;;;;;3.90;2.80;;;12.20;37.90;;;;;;10406152;28;20238;-71
2023/04/14 22:24:13;;;;;;;3.30;2.80;;;12.20;37.90;;;;;;10405608;28;20248;-71
2023/04/14 22:29:16;;;;;;;2.87;2.67;;;12.20;38.10;;;;;;10407174;28;20237;-71
2023/04/14 22:34:20;;;;;;;2.80;2.60;;;12.10;38.00;;;;;;10407118;28;20345;-71
2023/04/14 22:39:25;;;;;;;3.00;2.70;;;12.00;37.90;;;;;;10408068;28;20579;-71
2023/04/14 22:44:28;;;;;;;3.10;2.90;;;12.00;38.10;;;;;;10409061;28;20697;-71
2023/04/14 22:49:31;;;;;;;2.97;2.77;;;11.90;37.90;;;;;;10408296;28;20236;-71
2023/04/14 22:54:35;;;;;;;3.23;2.93;;;11.90;38.00;;;;;;10408051;28;20234;-71
2023/04/14 22:59:39;;;;;;;2.63;2.43;;;11.90;38.40;;;;;;10407811;28;20233;-70
2023/04/14 23:04:42;;;;;;;2.90;2.70;;;11.80;38.10;;;;;;10408073;28;20229;-71
2023/04/14 23:09:47;;;;;;;3.30;3.00;;;11.80;38.10;;;;;;10408118;28;20240;-71
2023/04/14 23:14:50;;;;;;;3.10;2.70;;;11.80;38.20;;;;;;10407511;28;20234;-71
2023/04/14 23:19:54;;;;;;;3.00;2.67;;;11.70;38.10;;;;;;10407404;28;20232;-71
2023/04/14 23:24:58;;;;;;;3.07;2.80;;;11.70;38.10;;;;;;10408276;28;20328;-71
2023/04/14 23:30:01;;;;;;;2.87;2.67;;;11.70;38.30;;;;;;10405584;28;20740;-71
2023/04/14 23:35:06;;;;;;;3.53;3.10;;;11.60;38.10;;;;;;10405702;28;20253;-71
2023/04/14 23:40:12;;;;;;;3.47;3.07;;;11.50;38.10;;;;;;10407503;28;20221;-71
2023/04/14 23:45:16;;;;;;;3.37;3.00;;;11.40;38.50;;;;;;10409499;28;20226;-71
2023/04/14 23:50:19;;;;;;;2.90;2.70;;;11.40;38.20;;;;;;10415814;28;20240;-71
2023/04/14 23:55:25;;;;;;;3.07;2.87;;;11.30;38.20;;;;;;10415028;28;20655;-71
